Time;durP1;ratioP1;P1;durP2;ratioP2;P2;SDS_P1;SDS_P2;PMS_P1;PMS_P2;Temp;Humidity;BMP_temperature;BMP_pressure;BME280_temperature;BME280_humidity;BME280_pressure;Samples;Min_cycle;Max_cycle;Signal;HPM_P1;HPM_P2
2020/12/26 04:03:12;;;;;;;4.25;3.55;;;2.10;82.90;;;;;;5023562;23;92963;-81
2020/12/26 04:05:37;;;;;;;3.42;3.13;;;2.10;83.40;;;;;;4924462;28;93268;-79
2020/12/26 04:08:03;;;;;;;2.58;2.20;;;2.10;83.80;;;;;;4924098;28;92102;-80
2020/12/26 04:10:29;;;;;;;3.47;3.17;;;2.20;84.20;;;;;;4924603;28;92134;-79
2020/12/26 04:12:54;;;;;;;4.22;2.33;;;2.20;84.70;;;;;;4924606;28;91507;-81
2020/12/26 04:15:20;;;;;;;4.32;3.92;;;2.20;84.60;;;;;;4908072;28;93800;-81
2020/12/26 04:17:46;;;;;;;4.05;3.65;;;2.20;84.10;;;;;;4924923;28;92070;-81
2020/12/26 04:20:11;;;;;;;3.97;3.53;;;2.20;84.10;;;;;;4925701;28;91922;-80
2020/12/26 04:22:37;;;;;;;3.33;3.05;;;2.20;84.00;;;;;;4922775;28;92052;-81
2020/12/26 04:25:03;;;;;;;3.63;3.42;;;2.20;84.20;;;;;;4924657;28;92420;-80
2020/12/26 04:27:28;;;;;;;4.88;3.08;;;2.30;83.40;;;;;;4924429;28;91887;-81
2020/12/26 04:29:54;;;;;;;3.72;3.33;;;2.20;83.70;;;;;;4924703;28;92827;-81
2020/12/26 04:32:20;;;;;;;4.18;2.40;;;2.10;83.60;;;;;;4924852;28;91899;-79
2020/12/26 04:34:46;;;;;;;3.40;3.00;;;2.00;83.40;;;;;;4922774;28;92742;-78
2020/12/26 04:37:12;;;;;;;5.13;2.60;;;1.90;83.40;;;;;;4924047;28;92484;-81
2020/12/26 04:39:38;;;;;;;4.40;4.05;;;1.50;83.80;;;;;;4923919;28;91566;-81
2020/12/26 04:42:05;;;;;;;3.15;2.47;;;1.80;84.10;;;;;;4924992;28;91324;-81
2020/12/26 04:44:31;;;;;;;4.28;3.90;;;1.60;83.80;;;;;;4924762;28;91984;-80
2020/12/26 04:47:05;;;;;;;3.30;2.03;;;1.60;84.20;;;;;;4924659;28;92336;-81
2020/12/26 04:49:31;;;;;;;4.10;3.50;;;1.50;84.80;;;;;;4924882;28;91990;-80
2020/12/26 04:52:03;;;;;;;3.78;3.42;;;1.30;84.50;;;;;;4923839;28;91946;-79
2020/12/26 04:54:33;;;;;;;3.50;3.20;;;1.20;85.20;;;;;;4914213;28;93093;-78
2020/12/26 04:56:59;;;;;;;5.57;3.53;;;1.10;86.00;;;;;;4923840;28;94315;-79
2020/12/26 04:59:25;;;;;;;3.78;3.40;;;1.10;85.90;;;;;;4920743;28;92274;-77
2020/12/26 05:01:51;;;;;;;3.78;3.47;;;0.70;86.50;;;;;;4921503;28;92251;-80
2020/12/26 05:04:18;;;;;;;4.43;3.80;;;1.00;86.70;;;;;;4930809;28;92542;-81
2020/12/26 05:06:51;;;;;;;3.47;2.40;;;0.90;87.10;;;;;;4928451;28;96033;-79
2020/12/26 05:09:19;;;;;;;4.38;3.97;;;0.80;87.10;;;;;;4936350;28;91640;-81
2020/12/26 05:11:59;;;;;;;5.22;3.88;;;0.80;87.20;;;;;;4932638;28;90579;-80
2020/12/26 05:14:26;;;;;;;4.18;3.70;;;0.50;88.60;;;;;;4934705;28;92320;-81
2020/12/26 05:16:53;;;;;;;4.93;3.08;;;0.70;90.20;;;;;;4939312;28;92248;-79
2020/12/26 05:19:19;;;;;;;4.88;3.40;;;0.40;89.70;;;;;;4931808;28;92864;-80
2020/12/26 05:21:47;;;;;;;3.67;3.35;;;0.60;90.30;;;;;;4941282;28;91718;-79
2020/12/26 05:24:16;;;;;;;4.47;4.07;;;0.50;90.20;;;;;;4944289;28;92805;-78
2020/12/26 05:26:47;;;;;;;4.25;3.85;;;0.50;90.30;;;;;;4933328;28;91954;-78
2020/12/26 05:29:14;;;;;;;3.80;3.30;;;0.50;90.10;;;;;;4938205;28;91918;-77
2020/12/26 05:31:46;;;;;;;3.30;2.60;;;0.40;90.90;;;;;;4945823;28;91905;-81
2020/12/26 05:34:13;;;;;;;7.30;2.80;;;0.40;91.20;;;;;;4944949;28;92157;-79
2020/12/26 05:36:39;;;;;;;4.45;4.00;;;0.30;91.40;;;;;;4935200;28;91257;-81
2020/12/26 05:39:05;;;;;;;3.83;2.53;;;0.30;91.30;;;;;;4945850;28;92115;-81
2020/12/26 05:41:32;;;;;;;3.90;2.75;;;0.30;91.40;;;;;;4942559;28;91499;-78
2020/12/26 05:43:58;;;;;;;3.92;3.45;;;0.50;91.90;;;;;;4945775;28;92891;-81
2020/12/26 05:46:24;;;;;;;4.20;3.80;;;0.00;92.10;;;;;;4938270;28;92895;-81
2020/12/26 05:48:50;;;;;;;8.18;4.95;;;0.30;91.90;;;;;;4946977;28;92012;-78
2020/12/26 05:51:26;;;;;;;5.25;2.80;;;0.30;92.00;;;;;;4929082;28;92172;-80
2020/12/26 05:53:56;;;;;;;3.95;2.80;;;0.30;92.30;;;;;;4941186;28;91953;-82
2020/12/26 05:56:23;;;;;;;4.72;3.53;;;0.20;92.90;;;;;;4937568;28;92237;-82
2020/12/26 05:58:49;;;;;;;5.82;4.05;;;0.70;94.20;;;;;;4941147;28;92164;-82
2020/12/26 06:01:22;;;;;;;4.55;4.07;;;0.40;95.10;;;;;;4931146;28;91612;-82
2020/12/26 06:03:48;;;;;;;3.78;3.47;;;0.00;95.00;;;;;;4943676;28;91813;-82
2020/12/26 06:06:15;;;;;;;4.05;3.50;;;-0.10;95.70;;;;;;4941925;28;92533;-82
2020/12/26 06:08:41;;;;;;;4.35;3.53;;;0.00;98.00;;;;;;4927366;28;92703;-82
2020/12/26 06:11:08;;;;;;;4.25;3.85;;;-0.30;99.40;;;;;;4940075;28;91879;-82
2020/12/26 06:13:36;;;;;;;3.78;2.80;;;-0.30;98.80;;;;;;4936065;28;92308;-82
2020/12/26 06:16:24;;;;;;;4.30;3.90;;;-0.30;99.90;;;;;;4932908;28;92393;-82
2020/12/26 06:18:56;;;;;;;4.10;2.90;;;-0.40;99.40;;;;;;4946708;28;91777;-82
2020/12/26 06:21:23;;;;;;;5.25;3.75;;;-0.40;99.90;;;;;;4942478;28;92062;-81
2020/12/26 06:23:50;;;;;;;4.40;2.88;;;-0.40;99.90;;;;;;4946317;28;92774;-80
2020/12/26 06:26:17;;;;;;;4.38;3.92;;;-0.40;99.90;;;;;;4945866;28;91969;-80
2020/12/26 06:28:44;;;;;;;4.03;3.65;;;-0.40;99.90;;;;;;4947353;28;91887;-82
2020/12/26 06:31:10;;;;;;;5.93;4.20;;;-0.50;99.90;;;;;;4925043;28;91919;-82
2020/12/26 06:33:48;;;;;;;4.28;3.88;;;0.00;99.90;;;;;;4932588;28;93416;-82
2020/12/26 06:36:14;;;;;;;5.38;3.78;;;-0.60;99.90;;;;;;4942736;28;93454;-83
2020/12/26 06:38:41;;;;;;;5.25;4.38;;;-0.60;99.90;;;;;;4946888;28;91545;-82
2020/12/26 06:41:11;;;;;;;5.05;4.63;;;-0.60;99.90;;;;;;4918953;28;92281;-82
2020/12/26 06:43:39;;;;;;;5.63;3.50;;;-0.60;99.90;;;;;;4926889;28;92900;-82
2020/12/26 06:46:28;;;;;;;5.50;4.57;;;-0.50;99.90;;;;;;4938434;28;92025;-82
2020/12/26 06:48:56;;;;;;;5.50;4.20;;;-0.30;99.90;;;;;;4933728;28;92065;-78
2020/12/26 06:51:25;;;;;;;4.90;4.18;;;-0.70;99.90;;;;;;4918021;28;91330;-84
2020/12/26 06:53:53;;;;;;;4.80;3.15;;;-0.70;99.90;;;;;;4940153;28;92169;-80
2020/12/26 06:56:45;;;;;;;5.00;4.50;;;-1.00;99.90;;;;;;4940505;28;93004;-83
2020/12/26 06:59:12;;;;;;;6.03;4.35;;;-0.80;99.90;;;;;;4940265;28;92801;-82
2020/12/26 07:01:40;;;;;;;4.45;2.95;;;-0.80;99.90;;;;;;4942085;28;91765;-81
2020/12/26 07:04:15;;;;;;;7.50;3.85;;;-0.70;99.90;;;;;;4943407;28;92918;-80
2020/12/26 07:06:49;;;;;;;6.30;3.85;;;-0.70;99.90;;;;;;4934288;28;91922;-80
2020/12/26 07:09:37;;;;;;;5.15;4.53;;;-0.70;99.90;;;;;;4937184;28;92122;-80
2020/12/26 07:12:07;;;;;;;5.68;3.40;;;-0.70;99.90;;;;;;4947344;28;92124;-82
2020/12/26 07:14:38;;;;;;;9.85;6.70;;;-0.80;99.90;;;;;;4937181;28;91982;-81
2020/12/26 07:17:27;;;;;;;9.13;5.70;;;-1.00;99.90;;;;;;4926132;28;92436;-81
2020/12/26 07:19:58;;;;;;;7.97;5.50;;;-1.30;99.90;;;;;;4941247;28;91934;-82
2020/12/26 07:22:33;;;;;;;7.05;5.22;;;-0.60;99.90;;;;;;4934368;28;91940;-80
2020/12/26 07:25:08;;;;;;;9.23;6.47;;;0.20;99.90;;;;;;4936776;28;93391;-81
2020/12/26 07:27:38;;;;;;;6.43;4.45;;;-0.50;99.90;;;;;;4945311;28;92920;-80
2020/12/26 07:30:12;;;;;;;6.93;4.80;;;-0.40;99.90;;;;;;4943912;28;91888;-79
2020/12/26 07:32:57;;;;;;;5.05;3.47;;;-0.40;99.90;;;;;;4939986;28;91713;-81
2020/12/26 07:35:23;;;;;;;6.25;5.03;;;-0.10;99.90;;;;;;4941486;28;92870;-82
2020/12/26 07:38:03;;;;;;;6.03;4.60;;;-0.20;99.90;;;;;;4940337;28;91860;-80
2020/12/26 07:40:30;;;;;;;7.13;5.05;;;-0.30;99.90;;;;;;4940901;28;91998;-78
2020/12/26 07:42:57;;;;;;;6.90;5.25;;;-0.40;99.90;;;;;;4918299;28;91384;-80
2020/12/26 07:45:24;;;;;;;5.70;4.40;;;-0.40;99.90;;;;;;4934799;28;92803;-79
2020/12/26 07:47:53;;;;;;;6.30;4.68;;;-0.40;99.90;;;;;;4929765;28;92364;-78
2020/12/26 07:50:27;;;;;;;8.32;4.32;;;-0.40;99.90;;;;;;4935895;28;93815;-81
2020/12/26 07:52:54;;;;;;;7.28;4.80;;;-0.20;99.90;;;;;;4929470;28;91563;-81
2020/12/26 07:55:21;;;;;;;6.45;3.40;;;-0.50;99.90;;;;;;4936548;28;91997;-82
2020/12/26 07:57:47;;;;;;;7.45;5.35;;;-0.50;99.90;;;;;;4936708;28;92027;-81
2020/12/26 08:00:26;;;;;;;5.32;4.53;;;-0.80;99.90;;;;;;4930794;28;91808;-80
2020/12/26 08:02:53;;;;;;;7.43;4.90;;;-0.40;99.90;;;;;;4930181;28;91975;-81
2020/12/26 08:05:27;;;;;;;8.95;5.28;;;-0.30;99.90;;;;;;4939757;28;93643;-81
2020/12/26 08:07:54;;;;;;;6.20;4.50;;;-0.20;99.90;;;;;;4945963;28;91140;-82
2020/12/26 08:10:20;;;;;;;5.50;4.53;;;0.20;99.90;;;;;;4944034;28;91913;-83
2020/12/26 08:12:50;;;;;;;7.40;3.92;;;0.00;99.90;;;;;;4942487;28;91264;-81
2020/12/26 08:15:30;;;;;;;5.93;4.38;;;0.40;99.90;;;;;;4929399;28;95552;-80
2020/12/26 08:18:01;;;;;;;7.35;5.45;;;0.20;99.90;;;;;;4930560;28;93054;-81
2020/12/26 08:20:28;;;;;;;8.95;4.80;;;0.40;99.90;;;;;;4931028;28;92761;-82
2020/12/26 08:22:54;;;;;;;7.50;5.35;;;0.80;99.90;;;;;;4939370;28;91338;-82
2020/12/26 08:25:26;;;;;;;5.85;4.97;;;1.60;99.90;;;;;;4941392;28;92153;-81
2020/12/26 08:27:52;;;;;;;7.32;4.47;;;1.70;99.90;;;;;;4937779;28;91890;-80
2020/12/26 08:30:34;;;;;;;6.00;5.20;;;2.30;99.90;;;;;;4932859;28;91992;-80
2020/12/26 08:33:10;;;;;;;6.68;4.85;;;3.80;93.80;;;;;;4935905;28;91218;-83
2020/12/26 08:35:40;;;;;;;8.18;5.18;;;3.70;94.20;;;;;;4935041;28;91649;-81
2020/12/26 08:38:18;;;;;;;6.03;5.43;;;4.90;84.80;;;;;;4937213;28;92009;-81
2020/12/26 08:40:56;;;;;;;5.90;3.97;;;4.90;85.00;;;;;;4939640;28;92744;-81
2020/12/26 08:43:23;;;;;;;8.98;6.32;;;5.40;78.50;;;;;;4932893;28;92577;-78
2020/12/26 08:45:49;;;;;;;16.55;8.13;;;5.50;80.80;;;;;;4934824;28;91814;-80
2020/12/26 08:48:22;;;;;;;13.40;7.82;;;5.80;77.50;;;;;;4944158;28;92085;-82
2020/12/26 08:51:00;;;;;;;8.85;6.18;;;6.10;76.10;;;;;;4943977;28;91647;-80
2020/12/26 08:53:25;;;;;;;7.70;5.03;;;6.30;71.30;;;;;;4949760;28;91279;-80
2020/12/26 08:55:52;;;;;;;6.95;6.05;;;5.40;70.80;;;;;;4956538;28;91455;-82
2020/12/26 08:58:30;;;;;;;8.27;6.05;;;5.50;71.70;;;;;;4953204;28;91209;-80
2020/12/26 09:01:00;;;;;;;9.20;6.40;;;5.10;71.80;;;;;;4943533;28;91189;-81
2020/12/26 09:03:28;;;;;;;9.48;7.28;;;5.00;74.40;;;;;;4943922;28;92152;-79
2020/12/26 09:05:56;;;;;;;10.45;5.97;;;4.90;74.40;;;;;;4940433;28;93096;-80
2020/12/26 09:08:36;;;;;;;10.45;7.63;;;4.90;74.60;;;;;;4935313;28;92138;-80
2020/12/26 09:11:08;;;;;;;11.93;7.20;;;5.20;73.60;;;;;;4937700;28;91856;-79
2020/12/26 09:13:37;;;;;;;9.15;7.75;;;5.70;73.40;;;;;;4928114;28;92038;-79
2020/12/26 09:16:13;;;;;;;9.80;7.13;;;6.40;71.70;;;;;;4917418;28;94480;-80
2020/12/26 09:18:41;;;;;;;8.52;5.72;;;7.00;70.90;;;;;;4928368;28;92181;-80
2020/12/26 09:21:09;;;;;;;10.73;6.88;;;7.20;67.40;;;;;;4941485;28;91970;-80
2020/12/26 09:23:35;;;;;;;9.50;6.78;;;7.30;66.30;;;;;;4935466;28;91326;-80
2020/12/26 09:26:28;;;;;;;8.88;5.70;;;7.30;66.20;;;;;;4938026;28;92818;-80
2020/12/26 09:29:00;;;;;;;7.13;5.85;;;7.20;64.80;;;;;;4939710;28;93358;-79
2020/12/26 09:31:37;;;;;;;7.70;6.25;;;7.30;62.30;;;;;;4933360;28;92733;-79
2020/12/26 09:34:25;;;;;;;7.18;5.28;;;7.20;63.60;;;;;;4933970;28;92102;-81
2020/12/26 09:37:05;;;;;;;7.65;5.68;;;7.20;62.20;;;;;;4937293;28;93342;-81
2020/12/26 09:39:31;;;;;;;5.20;4.55;;;7.10;62.20;;;;;;4930595;28;91726;-80
2020/12/26 09:41:57;;;;;;;5.85;5.25;;;7.30;62.20;;;;;;4941223;28;91957;-80
2020/12/26 09:44:23;;;;;;;6.47;4.82;;;7.90;60.40;;;;;;4939189;28;91630;-81
2020/12/26 09:46:56;;;;;;;5.47;4.97;;;8.30;59.10;;;;;;4928490;28;92211;-81
2020/12/26 09:49:22;;;;;;;5.80;4.72;;;8.40;56.10;;;;;;4937068;28;91915;-80
2020/12/26 09:51:47;;;;;;;6.00;4.25;;;8.20;55.80;;;;;;4947590;28;91583;-81
2020/12/26 09:54:13;;;;;;;4.90;4.10;;;8.20;56.00;;;;;;4946143;28;92044;-81
2020/12/26 09:56:39;;;;;;;4.72;4.18;;;8.80;56.70;;;;;;4944705;28;93704;-81
2020/12/26 09:59:04;;;;;;;5.60;4.90;;;9.30;54.80;;;;;;4937813;28;93168;-81
2020/12/26 10:01:30;;;;;;;4.68;4.18;;;8.90;54.30;;;;;;4944223;28;91894;-81
2020/12/26 10:03:56;;;;;;;4.57;4.18;;;8.90;52.90;;;;;;4940428;28;91985;-81
2020/12/26 10:06:22;;;;;;;4.55;4.15;;;8.40;54.00;;;;;;4942802;28;91984;-81
2020/12/26 10:08:48;;;;;;;6.55;4.90;;;8.00;57.10;;;;;;4941479;28;91812;-79
2020/12/26 10:11:18;;;;;;;4.53;3.80;;;7.40;56.30;;;;;;4940066;28;92001;-80
2020/12/26 10:13:45;;;;;;;4.72;4.20;;;7.00;56.40;;;;;;4945588;28;90927;-81
2020/12/26 10:16:11;;;;;;;4.13;3.72;;;6.60;56.70;;;;;;4929942;28;93496;-80
2020/12/26 10:18:38;;;;;;;4.22;3.83;;;6.60;56.70;;;;;;4947365;28;91930;-79
2020/12/26 10:21:04;;;;;;;4.95;3.80;;;6.60;57.50;;;;;;4945873;28;92844;-81
2020/12/26 10:23:30;;;;;;;3.47;3.17;;;7.00;57.20;;;;;;4940252;28;91837;-81
2020/12/26 10:26:07;;;;;;;3.95;3.08;;;7.10;53.20;;;;;;4938487;28;92255;-80
2020/12/26 10:28:33;;;;;;;3.63;3.30;;;7.30;54.20;;;;;;4929454;28;94265;-81
2020/12/26 10:30:59;;;;;;;3.67;3.25;;;7.30;53.10;;;;;;4938575;28;92119;-81
2020/12/26 10:33:26;;;;;;;5.75;3.30;;;7.80;54.30;;;;;;4946135;28;91973;-80
2020/12/26 10:35:51;;;;;;;3.20;2.95;;;8.60;51.20;;;;;;4919699;28;93823;-81
2020/12/26 10:38:17;;;;;;;3.55;3.25;;;9.20;51.60;;;;;;4941462;28;92949;-81
2020/12/26 10:40:43;;;;;;;3.40;3.10;;;9.30;49.60;;;;;;4947333;28;93013;-83
2020/12/26 10:43:08;;;;;;;3.65;3.33;;;9.10;50.20;;;;;;4938155;28;91832;-81
2020/12/26 10:45:34;;;;;;;3.28;2.70;;;8.90;50.60;;;;;;4937439;28;94444;-80
2020/12/26 10:48:00;;;;;;;3.55;3.25;;;8.80;50.60;;;;;;4946813;28;92120;-80
2020/12/26 10:50:26;;;;;;;3.47;3.10;;;8.60;50.90;;;;;;4938099;28;91275;-80
2020/12/26 10:52:51;;;;;;;3.53;3.22;;;8.90;51.80;;;;;;4940403;28;91856;-81
2020/12/26 10:55:18;;;;;;;6.05;3.65;;;9.00;50.10;;;;;;4938482;28;92435;-81
2020/12/26 10:57:43;;;;;;;3.55;3.25;;;9.30;50.40;;;;;;4941035;28;91455;-81
2020/12/26 11:00:13;;;;;;;3.45;3.15;;;9.40;48.40;;;;;;4948023;28;92102;-81
2020/12/26 11:02:39;;;;;;;4.15;3.20;;;9.40;48.80;;;;;;4944801;28;91429;-81
2020/12/26 11:05:05;;;;;;;3.47;3.17;;;9.20;48.20;;;;;;4938660;28;92811;-81
2020/12/26 11:07:35;;;;;;;3.03;2.83;;;8.90;47.70;;;;;;4945104;28;92394;-81
2020/12/26 11:10:01;;;;;;;2.67;2.47;;;8.90;48.80;;;;;;4925186;28;92910;-81
2020/12/26 11:12:27;;;;;;;2.63;2.42;;;9.00;47.40;;;;;;4944461;28;91876;-80
2020/12/26 11:14:52;;;;;;;3.88;2.45;;;9.00;48.70;;;;;;4946661;28;91698;-81
2020/12/26 11:17:18;;;;;;;3.65;2.75;;;9.20;47.40;;;;;;4938356;28;92948;-80
2020/12/26 11:19:44;;;;;;;2.92;2.50;;;9.30;47.40;;;;;;4940719;28;92075;-81
2020/12/26 11:22:09;;;;;;;2.38;1.80;;;9.50;47.60;;;;;;4937986;28;91896;-81
2020/12/26 11:24:35;;;;;;;3.40;3.20;;;9.70;49.10;;;;;;4942557;28;92280;-81
2020/12/26 11:27:01;;;;;;;2.63;2.40;;;10.00;48.50;;;;;;4942644;28;92457;-81
2020/12/26 11:29:27;;;;;;;3.83;3.10;;;10.50;48.00;;;;;;4942570;28;91602;-82
2020/12/26 11:31:56;;;;;;;3.13;2.72;;;10.70;45.40;;;;;;4942294;28;92022;-82
2020/12/26 11:34:22;;;;;;;3.55;3.25;;;11.00;44.50;;;;;;4920059;28;94698;-82
2020/12/26 11:36:47;;;;;;;3.05;2.85;;;11.40;43.30;;;;;;4934059;28;92948;-82
2020/12/26 11:39:13;;;;;;;2.97;2.78;;;11.70;44.10;;;;;;4944447;28;91954;-82
2020/12/26 11:41:39;;;;;;;2.90;2.70;;;11.90;43.20;;;;;;4947417;28;91644;-82
2020/12/26 11:44:04;;;;;;;2.88;2.55;;;12.20;42.30;;;;;;4941066;28;92212;-82
2020/12/26 11:46:30;;;;;;;3.25;2.85;;;12.30;41.60;;;;;;4937205;28;91901;-82
2020/12/26 11:48:56;;;;;;;3.60;3.30;;;12.50;40.10;;;;;;4944612;28;92023;-82
2020/12/26 11:51:22;;;;;;;3.53;3.13;;;12.20;41.20;;;;;;4946931;28;91181;-82
2020/12/26 11:53:47;;;;;;;3.33;3.03;;;12.80;41.50;;;;;;4939923;28;92215;-82
2020/12/26 11:56:16;;;;;;;3.38;3.17;;;13.10;40.40;;;;;;4938049;28;91985;-82
2020/12/26 11:58:43;;;;;;;2.42;2.13;;;13.20;38.70;;;;;;4941186;28;92766;-82
2020/12/26 12:01:09;;;;;;;2.60;2.40;;;13.70;37.20;;;;;;4948941;28;91912;-80
2020/12/26 12:03:36;;;;;;;2.65;2.50;;;13.70;38.20;;;;;;4928378;28;91916;-82
2020/12/26 12:06:03;;;;;;;2.63;2.40;;;14.20;37.40;;;;;;4940411;28;91888;-82
2020/12/26 12:08:29;;;;;;;3.85;2.58;;;14.70;37.40;;;;;;4946651;28;91970;-82
2020/12/26 12:10:55;;;;;;;3.22;2.95;;;15.10;36.50;;;;;;4947382;28;91347;-82
2020/12/26 12:13:20;;;;;;;3.10;2.85;;;15.70;35.50;;;;;;4938960;28;91971;-82
2020/12/26 12:15:46;;;;;;;2.53;2.33;;;15.90;35.40;;;;;;4939686;28;91853;-82
2020/12/26 12:18:12;;;;;;;2.40;2.30;;;16.00;34.50;;;;;;4948850;28;91844;-83
2020/12/26 12:20:38;;;;;;;2.63;2.42;;;15.70;34.00;;;;;;4948051;28;91329;-83
2020/12/26 12:23:04;;;;;;;2.67;2.47;;;15.00;34.90;;;;;;4935273;28;92966;-82
2020/12/26 12:25:30;;;;;;;2.40;2.20;;;14.40;35.90;;;;;;4932786;28;93446;-82
2020/12/26 12:27:57;;;;;;;2.40;2.20;;;13.50;35.30;;;;;;4940929;28;92024;-84
2020/12/26 12:30:24;;;;;;;2.40;2.30;;;12.80;35.40;;;;;;4936962;28;92212;-84
2020/12/26 12:32:50;;;;;;;2.85;2.65;;;12.30;37.90;;;;;;4946413;28;91661;-84
2020/12/26 12:35:16;;;;;;;2.10;1.90;;;12.10;38.40;;;;;;4945960;28;93291;-85
2020/12/26 12:37:47;;;;;;;1.80;1.70;;;11.80;38.30;;;;;;4941040;28;92063;-84
2020/12/26 12:40:13;;;;;;;2.35;2.15;;;11.30;37.80;;;;;;4946353;28;90684;-85
2020/12/26 12:42:38;;;;;;;2.22;2.05;;;10.80;39.20;;;;;;4947175;28;91978;-85
2020/12/26 12:45:04;;;;;;;2.20;2.10;;;10.20;39.60;;;;;;4938983;28;91850;-84
2020/12/26 12:47:31;;;;;;;2.75;2.50;;;9.90;40.90;;;;;;4940101;28;92938;-84
2020/12/26 12:49:56;;;;;;;2.67;2.47;;;9.60;41.70;;;;;;4943636;28;92006;-84
2020/12/26 12:52:25;;;;;;;2.33;2.20;;;9.10;42.80;;;;;;4944770;28;92296;-84
2020/12/26 12:54:51;;;;;;;2.38;2.28;;;8.70;43.40;;;;;;4942878;28;91917;-84
2020/12/26 12:57:16;;;;;;;3.03;2.83;;;8.30;43.70;;;;;;4947817;28;93778;-84
2020/12/26 12:59:43;;;;;;;2.42;2.22;;;8.00;44.80;;;;;;4946135;28;92177;-84
2020/12/26 13:02:09;;;;;;;3.60;2.40;;;7.80;45.30;;;;;;4944393;28;92800;-84
2020/12/26 13:04:36;;;;;;;2.72;2.53;;;7.60;46.00;;;;;;4944538;28;95403;-83
2020/12/26 13:07:02;;;;;;;2.80;2.60;;;7.20;47.20;;;;;;4939308;28;91350;-83
2020/12/26 13:09:28;;;;;;;2.40;2.20;;;6.80;48.80;;;;;;4942916;28;91982;-83
2020/12/26 13:11:53;;;;;;;2.85;2.35;;;6.60;49.80;;;;;;4940445;28;93078;-83
2020/12/26 13:14:19;;;;;;;2.92;2.72;;;6.30;48.40;;;;;;4944006;28;94095;-84
2020/12/26 13:16:45;;;;;;;2.55;2.45;;;6.10;49.90;;;;;;4940002;28;92228;-83
2020/12/26 13:19:11;;;;;;;3.42;2.83;;;6.00;50.30;;;;;;4927516;28;92036;-83
2020/12/26 13:21:36;;;;;;;4.43;2.70;;;5.90;50.80;;;;;;4939341;28;93382;-83
2020/12/26 13:24:02;;;;;;;3.53;2.90;;;5.80;51.00;;;;;;4943717;28;92552;-83
2020/12/26 13:26:28;;;;;;;3.78;3.42;;;5.70;51.40;;;;;;4954934;28;91976;-80
2020/12/26 13:28:54;;;;;;;4.05;3.65;;;5.60;51.80;;;;;;4955702;28;90595;-82
2020/12/26 13:31:28;;;;;;;4.13;3.67;;;5.50;51.80;;;;;;4959475;28;92168;-81
2020/12/26 13:33:55;;;;;;;3.17;2.95;;;5.30;52.70;;;;;;4949841;28;92021;-83
2020/12/26 13:36:21;;;;;;;3.45;3.05;;;5.20;53.20;;;;;;4944312;28;92575;-83
2020/12/26 13:38:47;;;;;;;2.92;2.30;;;5.10;54.20;;;;;;4940042;28;91545;-84
2020/12/26 13:41:13;;;;;;;3.22;2.95;;;5.00;54.70;;;;;;4948174;28;91606;-83
2020/12/26 13:43:38;;;;;;;3.75;3.20;;;5.00;54.40;;;;;;4945450;28;92797;-83
2020/12/26 13:46:04;;;;;;;3.67;3.35;;;4.80;55.10;;;;;;4949075;28;91567;-83
2020/12/26 13:48:30;;;;;;;3.85;3.50;;;4.70;55.80;;;;;;4935673;28;92185;-84
2020/12/26 13:50:56;;;;;;;6.38;4.53;;;4.60;56.50;;;;;;4940353;28;91620;-83
2020/12/26 13:53:22;;;;;;;6.35;4.40;;;4.60;57.00;;;;;;4946085;28;91967;-82
2020/12/26 13:55:47;;;;;;;5.65;4.13;;;4.60;57.60;;;;;;4945260;28;92338;-83
2020/12/26 13:58:13;;;;;;;4.18;3.70;;;4.60;58.00;;;;;;4935451;28;92076;-83
2020/12/26 14:00:39;;;;;;;4.32;3.42;;;4.60;57.50;;;;;;4933118;28;93383;-83
2020/12/26 14:03:06;;;;;;;4.07;3.33;;;4.50;58.30;;;;;;4940778;28;92347;-80
2020/12/26 14:05:32;;;;;;;6.20;3.47;;;4.50;58.10;;;;;;4945861;28;92050;-80
2020/12/26 14:07:58;;;;;;;6.35;4.50;;;4.40;59.90;;;;;;4943313;28;92563;-80
2020/12/26 14:10:24;;;;;;;5.88;4.13;;;4.50;59.60;;;;;;4943751;28;92014;-83
2020/12/26 14:12:50;;;;;;;6.20;4.60;;;4.40;59.80;;;;;;4946102;28;92017;-83
2020/12/26 14:15:16;;;;;;;5.28;4.47;;;4.40;60.40;;;;;;4939445;28;91719;-81
2020/12/26 14:17:42;;;;;;;5.85;4.35;;;4.40;60.80;;;;;;4944092;28;91470;-82
2020/12/26 14:20:07;;;;;;;5.72;3.95;;;4.30;60.80;;;;;;4940575;28;92258;-83
2020/12/26 14:22:33;;;;;;;5.32;3.22;;;4.30;60.50;;;;;;4941243;28;92005;-82
2020/12/26 14:25:00;;;;;;;5.60;4.03;;;4.30;59.90;;;;;;4939228;28;92832;-83
2020/12/26 14:27:27;;;;;;;4.28;3.78;;;4.20;61.60;;;;;;4939610;28;92987;-82
2020/12/26 14:29:53;;;;;;;5.78;4.47;;;4.20;61.30;;;;;;4941100;28;93115;-82
2020/12/26 14:32:19;;;;;;;3.85;3.50;;;4.20;61.20;;;;;;4946083;28;92407;-81
2020/12/26 14:34:45;;;;;;;5.10;3.65;;;4.30;61.70;;;;;;4921416;28;92049;-82
2020/12/26 14:37:11;;;;;;;4.57;4.18;;;4.30;61.70;;;;;;4944298;28;91979;-82
2020/12/26 14:39:37;;;;;;;5.78;4.20;;;4.40;61.60;;;;;;4940550;28;92935;-82
2020/12/26 14:42:03;;;;;;;4.93;4.43;;;4.50;61.40;;;;;;4935199;28;91817;-82
2020/12/26 14:44:29;;;;;;;4.05;3.65;;;4.50;60.20;;;;;;4938879;28;92155;-83
2020/12/26 14:46:57;;;;;;;6.03;4.53;;;4.50;60.70;;;;;;4938776;28;92088;-82
2020/12/26 14:49:24;;;;;;;4.70;2.90;;;4.50;61.10;;;;;;4935864;28;93090;-83
2020/12/26 14:51:54;;;;;;;4.43;4.00;;;4.50;60.40;;;;;;4943059;28;92813;-83
2020/12/26 14:54:21;;;;;;;7.00;4.95;;;4.50;61.40;;;;;;4939310;28;91924;-83
2020/12/26 14:56:47;;;;;;;5.75;5.15;;;4.40;61.50;;;;;;4945765;28;91942;-82
2020/12/26 14:59:16;;;;;;;5.90;5.03;;;4.30;61.70;;;;;;4943913;28;91810;-82
2020/12/26 15:01:42;;;;;;;4.70;4.30;;;4.30;62.20;;;;;;4941189;28;92063;-82
2020/12/26 15:04:09;;;;;;;6.05;4.38;;;4.30;61.90;;;;;;4943654;28;92113;-82
2020/12/26 15:06:35;;;;;;;4.55;4.00;;;4.20;61.80;;;;;;4944022;28;91392;-82
2020/12/26 15:09:01;;;;;;;4.97;3.85;;;4.10;61.50;;;;;;4944987;28;92035;-82
2020/12/26 15:11:27;;;;;;;5.85;3.95;;;4.10;62.20;;;;;;4944449;28;93295;-82
2020/12/26 15:13:53;;;;;;;4.45;3.58;;;4.00;62.10;;;;;;4922821;28;93011;-82
2020/12/26 15:16:19;;;;;;;5.45;3.95;;;3.90;62.30;;;;;;4942372;28;91387;-82
2020/12/26 15:18:46;;;;;;;4.40;3.85;;;3.80;63.70;;;;;;4952857;28;92698;-82
2020/12/26 15:21:12;;;;;;;5.20;4.07;;;3.70;64.10;;;;;;4943463;28;92103;-82
2020/12/26 15:23:38;;;;;;;7.55;6.47;;;3.60;64.20;;;;;;4945585;28;91281;-83
2020/12/26 15:26:06;;;;;;;5.65;4.47;;;3.50;63.40;;;;;;4946928;28;91892;-83
2020/12/26 15:28:32;;;;;;;5.97;4.13;;;3.30;63.00;;;;;;4942822;28;92293;-83
2020/12/26 15:30:58;;;;;;;4.68;4.28;;;;;;;;;;4940283;28;91937;-83
2020/12/26 15:33:23;;;;;;;4.45;4.00;;;3.00;65.50;;;;;;4944215;28;92381;-83
2020/12/26 15:35:53;;;;;;;3.83;3.53;;;2.90;67.30;;;;;;4945726;28;91827;-84
2020/12/26 15:38:19;;;;;;;3.78;3.38;;;2.70;67.50;;;;;;4941837;28;93684;-84
2020/12/26 15:40:45;;;;;;;4.40;3.92;;;2.60;67.50;;;;;;4947034;28;94229;-84
2020/12/26 15:43:11;;;;;;;4.45;3.75;;;2.50;67.90;;;;;;4943490;28;91869;-84
2020/12/26 15:45:38;;;;;;;3.78;3.05;;;2.30;67.80;;;;;;4943869;28;91967;-84
2020/12/26 15:48:04;;;;;;;3.28;2.88;;;2.20;68.60;;;;;;4944966;28;92303;-85
2020/12/26 15:50:30;;;;;;;5.05;3.92;;;2.00;69.70;;;;;;4944407;28;92341;-82
2020/12/26 15:52:55;;;;;;;5.38;4.20;;;1.90;69.70;;;;;;4941382;28;92090;-82
2020/12/26 15:55:21;;;;;;;5.15;4.00;;;1.80;71.00;;;;;;4940889;28;91347;-82
2020/12/26 15:57:47;;;;;;;7.57;4.63;;;1.70;71.70;;;;;;4941319;28;91954;-80
2020/12/26 16:00:13;;;;;;;4.53;3.95;;;1.50;73.20;;;;;;4938276;28;92413;-79
2020/12/26 16:02:38;;;;;;;7.63;4.28;;;1.40;72.60;;;;;;4942709;28;93131;-80
2020/12/26 16:05:04;;;;;;;5.95;4.18;;;1.30;72.90;;;;;;4945037;28;91947;-82
2020/12/26 16:07:30;;;;;;;7.57;4.63;;;1.20;74.90;;;;;;4937935;28;92309;-81
2020/12/26 16:09:55;;;;;;;8.65;5.63;;;1.00;76.10;;;;;;4932727;28;93242;-80
2020/12/26 16:12:21;;;;;;;5.55;4.93;;;0.70;77.80;;;;;;4933506;28;91848;-80
2020/12/26 16:14:48;;;;;;;6.10;4.35;;;0.80;77.60;;;;;;4937248;28;92161;-81
2020/12/26 16:17:14;;;;;;;6.65;3.60;;;0.70;75.60;;;;;;4937884;28;92096;-80
2020/12/26 16:19:40;;;;;;;4.95;3.70;;;0.70;75.00;;;;;;4941205;28;92424;-81
2020/12/26 16:22:05;;;;;;;6.85;4.75;;;0.30;76.30;;;;;;4938329;28;93208;-82
2020/12/26 16:24:32;;;;;;;4.13;3.72;;;0.60;76.10;;;;;;4942790;28;92066;-81
2020/12/26 16:26:58;;;;;;;5.90;4.20;;;0.60;75.90;;;;;;4922725;28;95299;-82
2020/12/26 16:29:23;;;;;;;6.50;4.47;;;0.40;76.30;;;;;;4944295;28;92180;-80
2020/12/26 16:31:49;;;;;;;7.60;4.65;;;0.40;78.00;;;;;;4941036;28;92251;-82
2020/12/26 16:34:15;;;;;;;7.25;4.10;;;0.20;78.50;;;;;;4942285;28;91950;-81
2020/12/26 16:36:40;;;;;;;5.15;3.83;;;0.20;78.80;;;;;;4938471;28;92095;-81
2020/12/26 16:39:06;;;;;;;5.30;3.85;;;0.20;78.80;;;;;;4938385;28;91966;-80
2020/12/26 16:41:36;;;;;;;3.85;2.70;;;0.20;79.30;;;;;;4943492;28;92026;-80
2020/12/26 16:44:03;;;;;;;6.40;4.10;;;0.10;79.00;;;;;;4938970;28;91165;-81
2020/12/26 16:46:29;;;;;;;4.53;3.60;;;0.00;79.60;;;;;;4936217;28;92293;-79
2020/12/26 16:48:55;;;;;;;4.90;3.28;;;0.00;80.80;;;;;;4936899;28;92078;-81
2020/12/26 16:51:23;;;;;;;4.70;3.58;;;-0.20;81.30;;;;;;4937892;28;93091;-80
2020/12/26 16:53:49;;;;;;;4.28;3.97;;;-0.10;82.20;;;;;;4938854;28;91898;-80
2020/12/26 16:56:16;;;;;;;6.00;4.22;;;-0.20;83.30;;;;;;4931909;28;93109;-79
2020/12/26 16:58:42;;;;;;;6.40;4.30;;;-0.20;83.50;;;;;;4933577;28;91868;-78
2020/12/26 17:01:15;;;;;;;5.03;3.30;;;-0.40;85.10;;;;;;4942357;28;92610;-83